Time;durP1;ratioP1;P1;durP2;ratioP2;P2;SDS_P1;SDS_P2;PMS_P1;PMS_P2;Temp;Humidity;BMP_temperature;BMP_pressure;BME280_temperature;BME280_humidity;BME280_pressure;Samples;Min_cycle;Max_cycle;Signal;HPM_P1;HPM_P2
2022/06/03 00:01:37;;;;;;;20.75;16.23;;;18.10;99.90;;;;;;5001332;28;20061;-79
2022/06/03 00:04:33;;;;;;;22.02;15.90;;;18.20;99.90;;;;;;5059535;28;20075;-80
2022/06/03 00:07:12;;;;;;;19.13;16.83;;;18.10;99.90;;;;;;5055354;28;20044;-80
2022/06/03 00:10:07;;;;;;;21.48;15.95;;;18.10;99.90;;;;;;5043192;28;20053;-80
2022/06/03 00:12:50;;;;;;;20.55;15.85;;;18.10;99.90;;;;;;5059942;28;20060;-80
2022/06/03 00:15:29;;;;;;;30.27;24.00;;;18.10;99.90;;;;;;5060386;28;20040;-80
2022/06/03 00:18:39;;;;;;;17.60;15.13;;;18.10;99.90;;;;;;5060859;28;20057;-80
2022/06/03 00:21:12;;;;;;;18.35;15.13;;;18.10;99.90;;;;;;5051138;28;20053;-80
2022/06/03 00:24:04;;;;;;;19.70;15.52;;;18.10;99.90;;;;;;5076889;28;20041;-80
2022/06/03 00:26:54;;;;;;;32.72;25.15;;;18.00;99.90;;;;;;5061575;28;20052;-79
2022/06/03 00:29:39;;;;;;;18.90;15.82;;;18.00;99.90;;;;;;5022049;28;20092;-80
2022/06/03 00:32:24;;;;;;;22.13;15.10;;;18.00;99.90;;;;;;5040588;28;20049;-80
2022/06/03 00:35:06;;;;;;;19.95;15.18;;;17.90;99.90;;;;;;5040371;28;20037;-80
2022/06/03 00:37:48;;;;;;;18.33;15.27;;;17.90;99.90;;;;;;5059309;28;20090;-81
2022/06/03 00:40:35;;;;;;;21.35;14.80;;;17.90;99.90;;;;;;5060018;28;20045;-80
2022/06/03 00:43:30;;;;;;;16.27;14.15;;;17.90;99.90;;;;;;5041918;28;20037;-80
2022/06/03 00:46:08;;;;;;;17.27;15.25;;;17.90;99.90;;;;;;5060350;28;20051;-80
2022/06/03 00:48:50;;;;;;;16.50;14.73;;;18.00;99.90;;;;;;5059740;28;20476;-80
2022/06/03 00:51:56;;;;;;;17.23;15.43;;;18.00;99.90;;;;;;5041443;28;20045;-79
2022/06/03 00:55:09;;;;;;;17.95;14.73;;;18.10;99.90;;;;;;5059846;28;20048;-79
2022/06/03 00:58:00;;;;;;;19.10;15.52;;;18.20;99.90;;;;;;5042029;28;20584;-79
2022/06/03 01:00:31;;;;;;;18.13;14.38;;;18.40;99.90;;;;;;5060538;28;20041;-80
2022/06/03 01:03:25;;;;;;;17.45;14.30;;;18.50;99.90;;;;;;5059729;28;20476;-80
2022/06/03 01:06:08;;;;;;;17.67;15.05;;;18.60;99.90;;;;;;5055268;28;20432;-81
2022/06/03 01:08:55;;;;;;;18.98;15.48;;;18.60;99.90;;;;;;5064840;28;20063;-80
2022/06/03 01:11:41;;;;;;;20.40;14.75;;;18.80;99.90;;;;;;5073931;28;20098;-80
2022/06/03 01:14:19;;;;;;;19.27;14.45;;;18.80;99.90;;;;;;5080344;28;20040;-79
2022/06/03 01:17:00;;;;;;;18.23;15.57;;;18.90;99.90;;;;;;5075729;28;20040;-80
2022/06/03 01:19:57;;;;;;;21.85;15.32;;;19.00;99.90;;;;;;5075570;28;20075;-80
2022/06/03 01:22:54;;;;;;;13.18;8.65;;;19.30;99.90;;;;;;5061608;28;20041;-78
2022/06/03 01:25:50;;;;;;;8.32;5.93;;;19.50;99.90;;;;;;5076244;28;20554;-79
2022/06/03 01:28:56;;;;;;;12.00;6.35;;;20.00;99.90;;;;;;5082485;28;20044;-80
2022/06/03 01:32:06;;;;;;;9.77;5.15;;;20.20;99.90;;;;;;5055237;28;20053;-79
2022/06/03 01:34:50;;;;;;;8.23;4.60;;;20.30;99.90;;;;;;5083381;28;20058;-79
2022/06/03 01:37:25;;;;;;;9.48;4.82;;;20.20;99.90;;;;;;5059480;28;20041;-79
2022/06/03 01:40:15;;;;;;;9.93;6.05;;;20.20;99.90;;;;;;5056835;28;20447;-80
2022/06/03 01:43:20;;;;;;;13.65;9.45;;;20.10;99.90;;;;;;5058841;28;20041;-79
2022/06/03 01:46:13;;;;;;;11.75;9.32;;;20.00;99.90;;;;;;5071915;28;20044;-79
2022/06/03 01:49:08;;;;;;;9.48;8.48;;;19.80;99.90;;;;;;5081172;28;20101;-78
2022/06/03 01:52:02;;;;;;;10.95;7.70;;;19.70;99.90;;;;;;5076974;28;20052;-78
2022/06/03 01:54:49;;;;;;;15.35;11.23;;;19.60;99.90;;;;;;5046071;28;20056;-79
2022/06/03 01:57:49;;;;;;;13.45;11.40;;;19.30;99.90;;;;;;5035399;28;20054;-79
2022/06/03 02:00:28;;;;;;;15.07;10.90;;;19.20;99.90;;;;;;5053742;28;20543;-79
2022/06/03 02:03:17;;;;;;;13.32;11.45;;;19.00;99.90;;;;;;5052741;28;20032;-79
2022/06/03 02:06:13;;;;;;;16.13;11.25;;;18.90;99.90;;;;;;5073371;28;20071;-77
2022/06/03 02:09:10;;;;;;;14.70;12.25;;;18.90;99.90;;;;;;5087077;28;20044;-79
2022/06/03 02:12:07;;;;;;;16.23;12.50;;;19.00;99.90;;;;;;5043344;28;20037;-79
2022/06/03 02:15:10;;;;;;;16.60;13.63;;;19.00;99.90;;;;;;5054279;28;20083;-79
2022/06/03 02:17:59;;;;;;;18.60;13.85;;;19.00;99.90;;;;;;5068870;28;20510;-79
2022/06/03 02:20:59;;;;;;;16.50;13.18;;;18.90;99.90;;;;;;5041990;28;20483;-79
2022/06/03 02:23:58;;;;;;;17.65;14.68;;;18.80;99.90;;;;;;5055373;28;20090;-79
2022/06/03 02:27:00;;;;;;;18.02;15.57;;;18.80;99.90;;;;;;5076769;28;20044;-79
2022/06/03 02:33:03;;;;;;;18.05;16.25;;;18.80;99.90;;;;;;5043360;28;20072;-79
2022/06/03 02:35:54;;;;;;;20.48;16.25;;;18.70;99.90;;;;;;5043739;28;20044;-79
2022/06/03 02:38:39;;;;;;;18.27;15.30;;;18.70;99.90;;;;;;5048481;28;20114;-79
2022/06/03 02:41:43;;;;;;;18.70;16.00;;;18.70;99.90;;;;;;5061722;28;20048;-79
2022/06/03 02:44:49;;;;;;;17.50;15.63;;;18.70;99.90;;;;;;5043634;28;20044;-79
2022/06/03 02:47:43;;;;;;;19.95;16.67;;;18.70;99.90;;;;;;5061758;28;20053;-80
2022/06/03 02:50:41;;;;;;;19.33;17.25;;;18.70;99.90;;;;;;5044041;28;20049;-79
2022/06/03 02:53:44;;;;;;;17.60;15.70;;;18.70;99.90;;;;;;5036485;28;20045;-80
2022/06/03 02:56:36;;;;;;;17.90;15.25;;;18.70;99.90;;;;;;5062295;28;20049;-79
2022/06/03 02:59:29;;;;;;;20.27;15.95;;;18.70;99.90;;;;;;5061737;28;20041;-80
2022/06/03 03:02:25;;;;;;;17.50;15.65;;;18.60;99.90;;;;;;5061685;28;20041;-80
2022/06/03 03:05:21;;;;;;;16.75;14.60;;;18.60;99.90;;;;;;5061351;28;20037;-80
2022/06/03 03:08:26;;;;;;;18.23;14.45;;;18.60;99.90;;;;;;5052526;28;20053;-80
2022/06/03 03:11:18;;;;;;;17.88;15.25;;;18.50;99.90;;;;;;5073146;28;20049;-79
2022/06/03 03:14:12;;;;;;;20.52;15.73;;;18.60;99.90;;;;;;5069523;28;20075;-80
2022/06/03 03:16:58;;;;;;;18.48;16.35;;;18.60;99.90;;;;;;5044051;28;20450;-80
2022/06/03 03:20:05;;;;;;;19.92;16.58;;;18.50;99.90;;;;;;5061979;28;20044;-80
2022/06/03 03:23:06;;;;;;;18.88;16.08;;;18.60;99.90;;;;;;5052251;28;20064;-79
2022/06/03 03:25:51;;;;;;;20.30;18.17;;;18.40;99.90;;;;;;5061863;28;20119;-80
2022/06/03 03:28:40;;;;;;;20.93;18.30;;;18.30;99.90;;;;;;5057457;28;20056;-79
2022/06/03 03:31:30;;;;;;;20.45;18.35;;;18.20;99.90;;;;;;5049090;28;20075;-79
2022/06/03 03:34:25;;;;;;;20.20;17.90;;;18.20;99.90;;;;;;5044103;28;20094;-80
2022/06/03 03:37:17;;;;;;;21.08;18.40;;;18.20;99.90;;;;;;5061918;28;20134;-80
2022/06/03 03:40:10;;;;;;;21.67;17.77;;;18.20;99.90;;;;;;5061108;28;20071;-80
2022/06/03 03:43:00;;;;;;;19.20;17.08;;;18.20;99.90;;;;;;5061599;28;20116;-80
2022/06/03 03:45:53;;;;;;;22.15;18.45;;;18.20;99.90;;;;;;5060962;28;20051;-79
2022/06/03 03:48:48;;;;;;;23.00;18.70;;;18.10;99.90;;;;;;5061667;28;20040;-80
2022/06/03 03:51:33;;;;;;;20.50;17.88;;;18.10;99.90;;;;;;5061717;28;20036;-80
2022/06/03 03:54:33;;;;;;;22.15;18.15;;;18.10;99.90;;;;;;5042571;28;20057;-79
2022/06/03 03:57:32;;;;;;;19.58;17.50;;;18.20;99.90;;;;;;5070929;28;20047;-80
2022/06/03 04:00:37;;;;;;;19.63;15.68;;;18.20;99.90;;;;;;5043579;28;20063;-79
2022/06/03 04:03:41;;;;;;;17.77;16.00;;;18.30;99.90;;;;;;5063867;28;20056;-79
2022/06/03 04:07:03;;;;;;;19.92;15.45;;;18.30;99.90;;;;;;5052934;28;20045;-80
2022/06/03 04:09:53;;;;;;;17.42;15.60;;;18.40;99.90;;;;;;5059877;28;20424;-80
2022/06/03 04:12:56;;;;;;;18.98;16.08;;;18.50;99.90;;;;;;5059849;28;20068;-80
2022/06/03 04:15:57;;;;;;;18.58;16.67;;;18.50;99.90;;;;;;5049897;28;20079;-79
2022/06/03 04:18:50;;;;;;;20.15;17.30;;;18.60;99.90;;;;;;5059154;28;20077;-79
2022/06/03 04:21:36;;;;;;;19.02;17.02;;;18.70;99.90;;;;;;5058649;28;20104;-79
2022/06/03 04:24:29;;;;;;;18.33;16.42;;;18.70;99.90;;;;;;5058628;28;20087;-79
2022/06/03 04:27:45;;;;;;;18.63;16.83;;;18.80;99.90;;;;;;5060545;28;20044;-80
2022/06/03 04:30:38;;;;;;;16.58;14.88;;;18.90;99.90;;;;;;5061895;28;20049;-79
2022/06/03 04:33:46;;;;;;;17.23;15.32;;;19.10;99.90;;;;;;5048380;28;20061;-79
2022/06/03 04:37:09;;;;;;;15.40;12.95;;;19.60;99.90;;;;;;5058286;28;20068;-79
2022/06/03 04:40:19;;;;;;;16.10;11.40;;;20.90;99.90;;;;;;5055509;28;20056;-79
2022/06/03 04:43:28;;;;;;;14.02;9.98;;;22.50;99.90;;;;;;5078893;28;20476;-79
2022/06/03 04:46:50;;;;;;;12.88;9.90;;;24.40;99.90;;;;;;5023306;28;20040;-79
2022/06/03 04:49:56;;;;;;;9.45;8.45;;;25.40;99.90;;;;;;5079831;28;20048;-79
2022/06/03 04:53:12;;;;;;;16.42;9.80;;;26.40;99.90;;;;;;5060770;28;20102;-79
2022/06/03 04:56:23;;;;;;;13.98;9.57;;;27.10;99.90;;;;;;5039773;28;20073;-79
2022/06/03 05:02:41;;;;;;;12.73;8.50;;;28.00;99.90;;;;;;5123221;27;20389;-79
2022/06/03 05:05:42;;;;;;;11.00;9.02;;;28.60;99.90;;;;;;5100812;28;20044;-80
2022/06/03 05:08:43;;;;;;;9.98;8.57;;;28.90;99.90;;;;;;5107203;28;20047;-83
2022/06/03 05:11:56;;;;;;;10.45;8.27;;;28.40;99.90;;;;;;5091344;28;20147;-77
2022/06/03 05:14:52;;;;;;;12.15;9.82;;;28.00;99.90;;;;;;5083508;28;20056;-76
2022/06/03 05:17:52;;;;;;;9.93;8.77;;;28.00;99.90;;;;;;5095668;28;20037;-78
2022/06/03 05:20:51;;;;;;;12.80;10.98;;;28.70;99.90;;;;;;5103405;28;20036;-77
2022/06/03 05:23:55;;;;;;;14.25;10.25;;;28.90;99.90;;;;;;5080887;28;20036;-78
2022/06/03 05:26:50;;;;;;;16.92;11.57;;;29.50;99.90;;;;;;5092275;28;20036;-78
2022/06/03 05:29:54;;;;;;;12.60;9.85;;;29.90;99.90;;;;;;5097199;28;20453;-78
2022/06/03 05:32:55;;;;;;;14.55;13.10;;;30.40;99.90;;;;;;5074624;28;20431;-77
2022/06/03 05:36:07;;;;;;;11.40;9.50;;;29.50;99.90;;;;;;5073338;28;20048;-76
2022/06/03 05:39:25;;;;;;;14.57;10.60;;;29.60;99.90;;;;;;5051620;28;20048;-77
2022/06/03 05:42:27;;;;;;;14.88;10.77;;;29.90;99.90;;;;;;5096492;28;20039;-77
2022/06/03 05:45:29;;;;;;;17.88;13.25;;;29.60;99.90;;;;;;5070123;28;20040;-77
2022/06/03 05:48:03;;;;;;;16.77;12.57;;;29.40;99.90;;;;;;5053113;28;20037;-77
2022/06/03 05:50:41;;;;;;;12.30;9.95;;;29.30;99.90;;;;;;5088410;28;20107;-75
2022/06/03 05:53:18;;;;;;;12.38;11.00;;;29.50;99.90;;;;;;5125670;28;20043;-77
2022/06/03 05:55:54;;;;;;;15.95;10.90;;;29.10;99.90;;;;;;5095978;28;20100;-78
2022/06/03 05:58:36;;;;;;;13.23;10.35;;;28.80;99.90;;;;;;5091471;28;20135;-78
2022/06/03 06:01:28;;;;;;;15.98;9.70;;;28.70;99.90;;;;;;5101025;28;20506;-78
2022/06/03 06:04:10;;;;;;;11.32;9.48;;;28.60;99.90;;;;;;5092568;28;20144;-79
2022/06/03 06:06:50;;;;;;;10.57;9.48;;;28.20;99.90;;;;;;5104949;28;20043;-78
2022/06/03 06:09:32;;;;;;;16.23;14.63;;;27.50;99.90;;;;;;5109322;28;20040;-78
2022/06/03 06:12:16;;;;;;;17.92;14.68;;;27.20;99.90;;;;;;5064856;28;20047;-78
2022/06/03 06:14:58;;;;;;;12.20;11.10;;;26.70;99.90;;;;;;5068933;28;20066;-78
2022/06/03 06:17:42;;;;;;;19.83;13.43;;;26.00;99.90;;;;;;5077488;28;20086;-77
2022/06/03 06:20:18;;;;;;;13.25;11.02;;;25.70;99.90;;;;;;5076568;28;20037;-77
2022/06/03 06:22:49;;;;;;;12.68;11.30;;;26.20;99.90;;;;;;5076812;28;20102;-78
2022/06/03 06:25:23;;;;;;;13.45;12.15;;;26.10;99.90;;;;;;5078823;28;20037;-77
2022/06/03 06:28:03;;;;;;;12.38;11.20;;;25.90;99.90;;;;;;5078670;28;20044;-78
2022/06/03 06:30:59;;;;;;;18.67;16.73;;;26.10;99.90;;;;;;5074026;28;20033;-78
2022/06/03 06:33:40;;;;;;;;;;;26.70;99.90;;;;;;5093100;28;20040;-78
2022/06/03 06:36:37;;;;;;;21.08;13.40;;;27.10;99.90;;;;;;5093003;28;19932;-78
2022/06/03 06:39:15;;;;;;;23.95;17.73;;;27.60;99.90;;;;;;5097835;28;20048;-78
2022/06/03 06:42:01;;;;;;;19.77;13.93;;;27.70;99.90;;;;;;5080334;28;20562;-78
2022/06/03 06:44:41;;;;;;;15.10;13.60;;;27.80;99.90;;;;;;5099116;28;20069;-80
2022/06/03 06:47:16;;;;;;;20.67;14.60;;;27.90;99.90;;;;;;5100302;28;20490;-79
2022/06/03 06:49:56;;;;;;;17.48;12.30;;;27.90;99.90;;;;;;5100080;28;20044;-79
2022/06/03 06:52:48;;;;;;;19.17;12.45;;;28.10;99.90;;;;;;5101264;28;20109;-79
2022/06/03 06:55:22;;;;;;;19.95;13.30;;;28.30;99.90;;;;;;5098721;28;20157;-78
2022/06/03 06:57:52;;;;;;;24.55;13.13;;;28.00;99.90;;;;;;5080274;28;20117;-78
2022/06/03 07:00:24;;;;;;;18.52;11.88;;;27.90;99.90;;;;;;5099685;28;20048;-79
2022/06/03 07:02:57;;;;;;;11.05;9.95;;;27.90;99.90;;;;;;5099961;28;20051;-79
2022/06/03 07:05:33;;;;;;;15.27;10.90;;;27.70;99.90;;;;;;5098016;28;20074;-80
2022/06/03 07:08:05;;;;;;;;;;;27.60;99.90;;;;;;5114411;28;20059;-79
2022/06/03 07:10:43;;;;;;;13.57;12.18;;;27.80;99.90;;;;;;5098549;28;19920;-79
2022/06/03 07:13:16;;;;;;;17.50;12.82;;;27.60;99.90;;;;;;5098697;28;20048;-78
2022/06/03 07:16:01;;;;;;;13.25;11.75;;;27.00;99.90;;;;;;5077863;28;20068;-79
2022/06/03 07:21:33;;;;;;;18.88;15.07;;;27.10;99.90;;;;;;5079516;28;20514;-78
2022/06/03 07:24:08;;;;;;;18.10;16.00;;;27.00;99.90;;;;;;5079799;28;20488;-79
2022/06/03 07:26:38;;;;;;;18.35;14.48;;;26.70;99.90;;;;;;5078351;28;20072;-78
2022/06/03 07:29:13;;;;;;;16.17;14.18;;;26.40;99.90;;;;;;5077757;28;20057;-78
2022/06/03 07:31:48;;;;;;;16.88;15.27;;;26.60;99.90;;;;;;5077616;28;20094;-78
2022/06/03 07:34:20;;;;;;;18.80;16.60;;;26.50;99.90;;;;;;5077017;28;20078;-78
2022/06/03 07:36:53;;;;;;;19.13;14.68;;;26.60;99.90;;;;;;5058764;28;20067;-78
2022/06/03 07:39:48;;;;;;;17.20;13.95;;;26.90;99.90;;;;;;5059982;28;20044;-78
2022/06/03 07:42:34;;;;;;;17.98;14.65;;;26.90;99.90;;;;;;5078372;28;20052;-79
2022/06/03 07:45:26;;;;;;;18.65;16.42;;;27.10;99.90;;;;;;5079842;28;20094;-80
2022/06/03 07:47:55;;;;;;;15.48;13.55;;;27.00;99.90;;;;;;5070322;28;20044;-78
2022/06/03 07:50:23;;;;;;;16.77;13.85;;;26.80;99.90;;;;;;5078429;28;20037;-78
2022/06/03 07:52:55;;;;;;;21.27;14.80;;;26.70;99.90;;;;;;5078203;28;20047;-79
2022/06/03 07:55:25;;;;;;;15.48;13.88;;;26.50;99.90;;;;;;5076789;28;20447;-79
2022/06/03 07:57:56;;;;;;;16.63;14.80;;;26.60;99.90;;;;;;5077133;28;20068;-79
2022/06/03 08:00:25;;;;;;;16.13;14.52;;;26.70;99.90;;;;;;5076786;28;20052;-78
2022/06/03 08:03:07;;;;;;;17.98;13.32;;;27.00;99.90;;;;;;5077658;28;20036;-78
2022/06/03 08:05:35;;;;;;;13.85;12.30;;;27.00;99.90;;;;;;5074957;28;20041;-77
2022/06/03 08:11:00;;;;;;;19.95;15.73;;;27.00;99.90;;;;;;5075872;28;20044;-78
2022/06/03 08:13:31;;;;;;;20.80;16.73;;;27.00;99.90;;;;;;5076131;28;20043;-80
2022/06/03 08:16:01;;;;;;;17.60;15.70;;;27.00;99.90;;;;;;5078706;28;20086;-79
2022/06/03 08:18:33;;;;;;;15.10;13.40;;;27.00;99.90;;;;;;5078337;28;20573;-79
2022/06/03 08:21:06;;;;;;;16.48;14.48;;;27.10;99.90;;;;;;5064268;28;20051;-79
2022/06/03 08:23:35;;;;;;;22.58;18.65;;;27.00;99.90;;;;;;5057576;28;20067;-78
2022/06/03 08:26:07;;;;;;;19.85;17.63;;;27.30;99.90;;;;;;5056495;28;20091;-82
2022/06/03 08:28:36;;;;;;;19.10;16.00;;;27.50;99.90;;;;;;5058637;28;20041;-79
2022/06/03 08:31:07;;;;;;;17.80;16.00;;;27.80;99.90;;;;;;5058243;28;20056;-79
2022/06/03 08:33:45;;;;;;;16.48;14.55;;;27.70;99.90;;;;;;5058752;28;20047;-79
2022/06/03 08:36:16;;;;;;;16.15;14.45;;;27.40;99.90;;;;;;5051257;28;20052;-78
2022/06/03 08:38:48;;;;;;;27.17;14.65;;;27.40;99.90;;;;;;5056157;28;20052;-78
2022/06/03 08:41:39;;;;;;;14.20;12.68;;;27.40;99.90;;;;;;5055325;28;20064;-78
2022/06/03 08:44:23;;;;;;;14.73;13.20;;;27.30;99.90;;;;;;5054971;28;20059;-78
2022/06/03 08:46:54;;;;;;;15.35;13.55;;;27.40;99.90;;;;;;5066125;28;20046;-79
2022/06/03 08:49:28;;;;;;;14.43;12.38;;;27.50;99.90;;;;;;5067426;28;20072;-79
2022/06/03 08:52:03;;;;;;;15.05;12.85;;;27.50;99.90;;;;;;5059260;28;20551;-78
2022/06/03 08:54:35;;;;;;;12.57;11.27;;;27.60;99.90;;;;;;5075603;28;20263;-82
2022/06/03 08:57:09;;;;;;;13.02;11.70;;;27.80;99.90;;;;;;5076163;28;20045;-79
2022/06/03 08:59:40;;;;;;;12.85;11.55;;;27.70;99.90;;;;;;5057939;28;20045;-78
2022/06/03 09:02:11;;;;;;;13.23;11.98;;;27.60;99.90;;;;;;5077039;28;20076;-82
2022/06/03 09:04:47;;;;;;;13.43;12.05;;;27.90;99.90;;;;;;5076416;28;20044;-78
2022/06/03 09:07:24;;;;;;;12.63;11.40;;;27.80;99.90;;;;;;5076085;28;20048;-79
2022/06/03 09:09:55;;;;;;;11.75;10.65;;;28.10;99.90;;;;;;5060972;28;20056;-77
2022/06/03 09:12:41;;;;;;;17.27;12.80;;;28.30;99.90;;;;;;5063667;28;20045;-83
2022/06/03 09:15:11;;;;;;;14.20;11.85;;;28.50;99.90;;;;;;5065072;28;20074;-82
2022/06/03 09:17:43;;;;;;;12.63;11.25;;;28.60;99.90;;;;;;5077799;28;20086;-78
2022/06/03 09:20:17;;;;;;;13.10;11.75;;;28.80;99.90;;;;;;5079170;28;20075;-79
2022/06/03 09:22:46;;;;;;;15.10;11.68;;;28.60;99.90;;;;;;5074315;28;20112;-78
2022/06/03 09:25:16;;;;;;;15.00;12.13;;;28.30;99.90;;;;;;5078108;28;20510;-82
2022/06/03 09:27:44;;;;;;;16.23;13.00;;;28.70;99.90;;;;;;5076301;28;20112;-78
2022/06/03 09:30:16;;;;;;;13.48;11.98;;;29.00;99.90;;;;;;5074033;28;20044;-77
2022/06/03 09:32:49;;;;;;;13.82;11.40;;;29.10;99.90;;;;;;5078342;28;20055;-83
2022/06/03 09:35:21;;;;;;;17.42;11.68;;;29.50;99.90;;;;;;5078432;28;20106;-79
2022/06/03 09:37:53;;;;;;;14.00;12.48;;;29.60;99.90;;;;;;5097576;28;20138;-82
2022/06/03 09:40:24;;;;;;;12.48;11.27;;;29.50;99.90;;;;;;5100314;28;20050;-82
2022/06/03 09:42:55;;;;;;;12.60;10.93;;;29.40;99.90;;;;;;5098599;28;20052;-79
2022/06/03 09:45:25;;;;;;;13.80;12.57;;;29.60;99.90;;;;;;5082235;28;20040;-78
2022/06/03 09:47:53;;;;;;;13.23;11.50;;;30.00;99.90;;;;;;5081943;28;20044;-79
2022/06/03 09:50:24;;;;;;;13.52;11.95;;;30.00;99.90;;;;;;5083810;28;20063;-78
2022/06/03 09:53:03;;;;;;;13.75;10.85;;;30.00;99.90;;;;;;5091591;28;20036;-78
2022/06/03 09:55:34;;;;;;;12.85;11.55;;;29.70;99.90;;;;;;5100967;28;20036;-82
2022/06/03 09:58:03;;;;;;;11.95;10.75;;;29.50;99.90;;;;;;5103120;28;20048;-78
2022/06/03 10:00:36;;;;;;;11.60;10.60;;;29.70;99.90;;;;;;5094919;28;20506;-79
2022/06/03 10:03:05;;;;;;;13.57;11.70;;;30.00;99.90;;;;;;5098133;28;20040;-79
2022/06/03 10:05:34;;;;;;;14.20;12.70;;;30.20;99.90;;;;;;5085537;28;20074;-78
2022/06/03 10:08:05;;;;;;;13.27;11.52;;;30.40;99.90;;;;;;5107501;28;20169;-79
2022/06/03 10:13:18;;;;;;;13.30;11.80;;;30.60;99.90;;;;;;5086766;28;20060;-79
2022/06/03 10:15:53;;;;;;;16.15;11.43;;;30.70;99.90;;;;;;5092806;28;20041;-78
2022/06/03 10:18:34;;;;;;;12.23;11.00;;;30.50;99.90;;;;;;5080726;28;20048;-78
2022/06/03 10:21:32;;;;;;;11.35;10.35;;;30.60;99.90;;;;;;5098183;28;20040;-79
2022/06/03 10:24:02;;;;;;;12.23;10.73;;;30.80;99.90;;;;;;5067983;28;20036;-79
2022/06/03 10:26:36;;;;;;;11.50;9.98;;;30.70;99.90;;;;;;5090140;28;20495;-77
2022/06/03 10:29:07;;;;;;;14.63;13.10;;;30.60;99.90;;;;;;5077553;28;20487;-78
2022/06/03 10:31:37;;;;;;;12.07;10.80;;;30.90;99.90;;;;;;5078448;28;20103;-78
2022/06/03 10:34:15;;;;;;;10.75;9.70;;;30.60;99.90;;;;;;5086075;28;20093;-79
2022/06/03 10:36:46;;;;;;;10.77;9.68;;;30.20;99.90;;;;;;5094544;28;20487;-78
2022/06/03 10:39:16;;;;;;;11.77;9.98;;;29.80;99.90;;;;;;5079110;28;20041;-77
2022/06/03 10:41:49;;;;;;;11.95;10.75;;;29.60;99.90;;;;;;5076719;28;20037;-77
2022/06/03 10:44:18;;;;;;;11.20;9.95;;;29.80;99.90;;;;;;5078673;28;20045;-78
2022/06/03 10:46:54;;;;;;;9.02;8.23;;;29.90;99.90;;;;;;5078752;28;20048;-79
2022/06/03 10:49:24;;;;;;;10.13;8.80;;;30.00;99.90;;;;;;5078296;28;20136;-78
2022/06/03 11:02:59;;;;;;;12.90;9.68;;;29.10;99.90;;;;;;5079910;28;20044;-79
2022/06/03 11:05:29;;;;;;;10.48;8.80;;;28.90;99.90;;;;;;5096377;28;20044;-78
2022/06/03 11:08:05;;;;;;;12.68;9.90;;;29.00;99.90;;;;;;5095850;28;20047;-78
2022/06/03 11:10:36;;;;;;;;;;;29.30;99.90;;;;;;5103981;28;20043;-79
2022/06/03 11:13:05;;;;;;;15.50;11.65;;;29.70;99.90;;;;;;5094357;28;19915;-80
2022/06/03 11:15:35;;;;;;;14.35;11.43;;;30.10;99.90;;;;;;5092077;28;20064;-81
2022/06/03 11:18:15;;;;;;;12.73;10.95;;;30.50;99.90;;;;;;5093965;28;20047;-80
2022/06/03 11:20:43;;;;;;;12.85;11.25;;;30.70;99.90;;;;;;5099206;28;20028;-80
2022/06/03 11:23:14;;;;;;;10.80;9.77;;;30.80;99.90;;;;;;5095213;28;20036;-80
2022/06/03 11:25:46;;;;;;;11.18;9.98;;;30.90;99.90;;;;;;5094377;28;20052;-81
2022/06/03 11:28:15;;;;;;;12.70;9.40;;;30.90;99.90;;;;;;5094121;28;20056;-81
2022/06/03 11:30:48;;;;;;;12.73;11.43;;;30.90;99.90;;;;;;5091882;28;20052;-81
2022/06/03 11:33:20;;;;;;;11.82;9.57;;;31.00;99.90;;;;;;5093385;28;20059;-81
2022/06/03 11:35:51;;;;;;;13.48;10.05;;;30.80;99.90;;;;;;5094771;28;20040;-81
2022/06/03 11:38:28;;;;;;;11.02;10.07;;;29.90;99.90;;;;;;5116301;28;20078;-80
2022/06/03 11:41:01;;;;;;;13.35;10.18;;;29.50;99.90;;;;;;5093486;28;20044;-81
2022/06/03 11:43:35;;;;;;;13.48;12.07;;;29.90;99.90;;;;;;5093018;28;20049;-81
2022/06/03 11:46:05;;;;;;;12.85;10.05;;;30.60;99.90;;;;;;5096403;28;20040;-79
2022/06/03 11:48:37;;;;;;;12.57;9.88;;;30.80;99.90;;;;;;5111948;28;20062;-80
2022/06/03 11:51:05;;;;;;;10.07;9.05;;;30.60;99.90;;;;;;5112174;28;20044;-81
2022/06/03 11:53:39;;;;;;;9.27;8.43;;;30.60;99.90;;;;;;5114019;28;20064;-81
2022/06/03 11:56:11;;;;;;;10.80;9.52;;;30.40;99.90;;;;;;5113212;28;20058;-79
2022/06/03 11:58:52;;;;;;;9.85;8.95;;;30.60;99.90;;;;;;5112828;28;20054;-80
2022/06/03 12:01:25;;;;;;;11.45;9.15;;;30.60;99.90;;;;;;5113382;28;20105;-80
2022/06/03 12:03:59;;;;;;;10.27;9.23;;;30.70;99.90;;;;;;5115202;28;20028;-80
2022/06/03 12:06:34;;;;;;;15.68;12.75;;;30.80;99.90;;;;;;5100220;28;20044;-84
2022/06/03 12:09:09;;;;;;;11.75;7.90;;;30.90;99.90;;;;;;5116674;28;20122;-80
2022/06/03 12:14:37;;;;;;;8.48;7.78;;;30.40;99.90;;;;;;5114722;28;20055;-81
2022/06/03 12:17:28;;;;;;;11.38;7.50;;;30.10;99.90;;;;;;5114872;28;20086;-81
2022/06/03 12:19:55;;;;;;;10.52;7.53;;;29.70;99.90;;;;;;5116606;28;20070;-80
2022/06/03 12:22:40;;;;;;;9.20;7.07;;;29.70;99.90;;;;;;5117633;28;20028;-80
2022/06/03 12:25:40;;;;;;;8.20;7.38;;;29.50;99.90;;;;;;5116620;28;20052;-80
2022/06/03 12:28:17;;;;;;;9.18;7.47;;;29.30;99.90;;;;;;5104124;28;20077;-79
2022/06/03 12:30:50;;;;;;;8.65;7.32;;;29.40;99.90;;;;;;5112631;28;20070;-80
2022/06/03 12:33:26;;;;;;;9.68;7.65;;;29.30;99.90;;;;;;5095131;28;20044;-80
2022/06/03 12:36:00;;;;;;;9.10;7.97;;;29.40;99.90;;;;;;5111354;28;20052;-81
2022/06/03 12:38:59;;;;;;;8.48;7.65;;;29.60;99.90;;;;;;5112029;28;20044;-80
2022/06/03 12:42:00;;;;;;;9.15;7.45;;;29.40;99.90;;;;;;5111728;28;20052;-81
2022/06/03 12:44:41;;;;;;;8.20;7.40;;;29.10;99.90;;;;;;5111960;28;20039;-80
2022/06/03 12:47:29;;;;;;;10.73;7.22;;;29.10;99.90;;;;;;5113338;28;20044;-79
2022/06/03 12:49:58;;;;;;;9.13;7.43;;;29.20;99.90;;;;;;5116728;28;20040;-80
2022/06/03 12:52:41;;;;;;;11.05;7.80;;;29.30;99.90;;;;;;5097992;28;20058;-80
2022/06/03 12:55:19;;;;;;;8.85;7.75;;;29.60;99.90;;;;;;5110799;28;20048;-81
2022/06/03 12:57:50;;;;;;;8.55;7.63;;;29.80;99.90;;;;;;5112295;28;20040;-81
2022/06/03 13:00:28;;;;;;;12.18;8.07;;;29.80;99.90;;;;;;5111240;28;20568;-80
2022/06/03 13:02:57;;;;;;;8.27;7.53;;;29.80;99.90;;;;;;5093541;28;20074;-81
2022/06/03 13:05:38;;;;;;;10.43;7.70;;;30.10;99.90;;;;;;5111032;28;20040;-81
2022/06/03 13:08:11;;;;;;;9.82;7.55;;;30.30;99.90;;;;;;5110415;28;20044;-81
2022/06/03 13:10:58;;;;;;;8.00;6.72;;;30.50;99.90;;;;;;5111136;28;20054;-80
2022/06/03 13:13:49;;;;;;;7.63;6.93;;;30.60;99.90;;;;;;5110983;28;20111;-79
2022/06/03 13:16:43;;;;;;;8.25;6.00;;;30.10;99.90;;;;;;5109498;28;20376;-80
2022/06/03 13:19:50;;;;;;;6.57;5.70;;;29.50;99.90;;;;;;5111241;28;20040;-81
2022/06/03 13:22:21;;;;;;;;;;;29.30;99.90;;;;;;5107584;28;20066;-79
2022/06/03 13:25:22;;;;;;;8.88;7.88;;;29.50;99.90;;;;;;5100624;28;19913;-79
2022/06/03 13:28:22;;;;;;;8.38;6.18;;;29.60;99.90;;;;;;5117920;28;20036;-79
2022/06/03 13:31:24;;;;;;;6.68;5.53;;;29.70;99.90;;;;;;5099405;28;20055;-80
2022/06/03 13:34:16;;;;;;;6.63;5.13;;;29.90;99.90;;;;;;5094387;28;20074;-80
2022/06/03 13:36:54;;;;;;;6.53;5.40;;;29.90;99.90;;;;;;5097145;28;20116;-80
2022/06/03 13:39:54;;;;;;;7.30;5.43;;;29.80;99.90;;;;;;5115382;28;20138;-81
2022/06/03 13:45:19;;;;;;;7.57;5.50;;;30.30;99.90;;;;;;5093684;28;20086;-78
2022/06/03 13:47:53;;;;;;;7.93;5.88;;;30.40;99.90;;;;;;5091546;28;20040;-79
2022/06/03 13:50:35;;;;;;;7.00;5.30;;;30.70;99.90;;;;;;5085383;28;20056;-81
2022/06/03 13:53:05;;;;;;;6.50;5.63;;;30.80;99.90;;;;;;5097406;28;20033;-79
2022/06/03 13:55:48;;;;;;;7.90;6.13;;;30.90;99.90;;;;;;5095149;28;20040;-80
2022/06/03 13:58:20;;;;;;;7.22;5.13;;;31.10;99.90;;;;;;5096776;28;20040;-80
2022/06/03 14:00:58;;;;;;;13.73;12.20;;;30.90;99.90;;;;;;5092214;28;20068;-80
2022/06/03 14:03:30;;;;;;;5.82;5.22;;;30.90;99.90;;;;;;5096438;28;20051;-80
2022/06/03 14:06:06;;;;;;;6.88;4.70;;;31.20;99.90;;;;;;5113962;28;20074;-80
2022/06/03 14:08:35;;;;;;;;;;;30.90;99.90;;;;;;5111278;28;20329;-80
2022/06/03 14:11:10;;;;;;;8.50;5.68;;;31.10;99.90;;;;;;5093160;28;19920;-80
2022/06/03 14:13:46;;;;;;;5.82;4.38;;;31.20;99.90;;;;;;5109923;28;20044;-80
2022/06/03 14:16:17;;;;;;;5.30;4.10;;;31.30;99.90;;;;;;5111579;28;20062;-80
2022/06/03 14:18:54;;;;;;;6.55;4.28;;;31.10;99.90;;;;;;5093433;28;20070;-80
2022/06/03 14:21:33;;;;;;;4.65;4.25;;;31.00;99.90;;;;;;5111870;28;20103;-81
2022/06/03 14:24:05;;;;;;;6.45;4.47;;;30.80;99.90;;;;;;5114309;28;20065;-81
2022/06/03 14:26:37;;;;;;;5.13;4.60;;;30.40;99.90;;;;;;5120657;28;20028;-79
2022/06/03 14:29:11;;;;;;;8.82;4.80;;;30.40;99.90;;;;;;5120560;28;20062;-80